createdAt,value
2023-02-08T00:04:18.342Z,99.90
2023-02-08T00:09:21.866Z,99.90
2023-02-08T00:14:25.462Z,99.90
2023-02-08T00:19:30.688Z,99.90
2023-02-08T00:24:34.330Z,99.90
2023-02-08T00:29:38.072Z,99.90
2023-02-08T00:34:43.617Z,99.90
2023-02-08T00:39:47.238Z,99.90
2023-02-08T00:44:51.010Z,99.90
2023-02-08T00:49:56.453Z,99.90
2023-02-08T00:55:00.709Z,99.90
2023-02-08T01:00:06.708Z,99.90
2023-02-08T01:05:12.294Z,99.90
2023-02-08T01:10:16.640Z,99.90
2023-02-08T01:15:20.096Z,99.90
2023-02-08T01:20:25.072Z,99.90
2023-02-08T01:25:28.985Z,99.90
2023-02-08T01:30:32.641Z,99.90
2023-02-08T01:35:38.001Z,99.90
2023-02-08T01:40:42.748Z,99.90
2023-02-08T01:45:46.626Z,99.90
2023-02-08T01:50:55.822Z,99.90
2023-02-08T01:56:06.411Z,99.90
2023-02-08T02:01:12.127Z,99.90
2023-02-08T02:06:21.400Z,99.90
2023-02-08T02:11:24.922Z,99.90
2023-02-08T02:16:30.312Z,99.90
2023-02-08T02:21:58.120Z,99.90
2023-02-08T02:27:25.437Z,99.90
2023-02-08T02:32:44.796Z,99.90
2023-02-08T02:45:00.673Z,99.90
2023-02-08T02:50:13.875Z,99.90
2023-02-08T02:55:23.646Z,99.90
2023-02-08T03:00:28.933Z,99.90
2023-02-08T03:05:34.151Z,99.90
2023-02-08T03:10:54.293Z,99.90
2023-02-08T03:16:11.103Z,99.90
2023-02-08T03:21:25.451Z,99.90
2023-02-08T03:26:34.836Z,99.90
2023-02-08T03:31:44.143Z,99.90
2023-02-08T03:36:52.419Z,99.90
2023-02-08T03:41:59.262Z,99.90
2023-02-08T03:47:08.118Z,99.90
2023-02-08T03:52:13.042Z,99.90
2023-02-08T03:57:21.329Z,99.90
2023-02-08T04:02:28.194Z,99.90
2023-02-08T04:07:33.651Z,99.90
2023-02-08T04:12:37.167Z,99.90
2023-02-08T04:17:40.805Z,99.90
2023-02-08T04:22:46.200Z,99.90
2023-02-08T04:27:49.605Z,99.90
2023-02-08T04:32:53.827Z,99.90
2023-02-08T04:37:59.239Z,99.90
2023-02-08T04:43:03.533Z,99.90
2023-02-08T04:48:07.459Z,99.90
2023-02-08T04:53:12.998Z,99.90
2023-02-08T04:58:17.216Z,99.90
2023-02-08T05:03:20.658Z,99.90
2023-02-08T05:08:25.901Z,99.90
2023-02-08T05:13:30.040Z,99.90
2023-02-08T05:18:33.544Z,99.90
2023-02-08T05:23:38.980Z,99.90
2023-02-08T05:28:42.525Z,99.90
2023-02-08T05:33:46.524Z,99.90
2023-02-08T05:38:53.658Z,99.90
2023-02-08T05:43:57.432Z,99.90
2023-02-08T05:49:02.206Z,99.90
2023-02-08T05:54:07.449Z,99.90
2023-02-08T05:59:11.808Z,99.90
2023-02-08T06:04:15.359Z,99.90
2023-02-08T06:09:20.272Z,99.90
2023-02-08T06:14:23.384Z,99.90
2023-02-08T06:19:26.904Z,99.90
2023-02-08T06:24:31.858Z,99.90
2023-02-08T06:29:35.023Z,99.90
2023-02-08T06:34:38.538Z,99.90
2023-02-08T06:39:43.202Z,99.90
2023-02-08T06:44:54.932Z,99.90
2023-02-08T06:49:59.210Z,99.90
2023-02-08T06:55:04.451Z,99.90
2023-02-08T07:00:09.975Z,99.90
2023-02-08T07:05:15.215Z,99.90
2023-02-08T07:10:19.932Z,99.90
2023-02-08T07:15:23.986Z,99.90
2023-02-08T07:20:27.312Z,99.90
2023-02-08T07:25:32.032Z,99.90
2023-02-08T07:30:36.801Z,99.90
2023-02-08T07:35:40.265Z,99.90
2023-02-08T07:40:45.177Z,99.90
2023-02-08T07:45:48.583Z,99.90
2023-02-08T07:50:52.131Z,99.90
2023-02-08T07:55:57.104Z,99.90
2023-02-08T08:01:07.057Z,99.90
2023-02-08T08:06:15.861Z,99.90
2023-02-08T08:11:22.768Z,99.90
2023-02-08T08:16:26.142Z,99.90
2023-02-08T08:21:29.565Z,99.90
2023-02-08T08:26:35.269Z,99.90
2023-02-08T08:31:38.880Z,99.90
2023-02-08T08:36:42.433Z,99.90
2023-02-08T08:41:47.475Z,99.90
2023-02-08T08:46:50.855Z,99.90
2023-02-08T08:51:54.942Z,99.90
2023-02-08T08:57:01.667Z,99.90
2023-02-08T09:02:06.146Z,99.90
2023-02-08T09:07:11.037Z,99.90
2023-02-08T09:12:16.862Z,99.90
2023-02-08T09:17:20.872Z,99.90
2023-02-08T09:22:24.881Z,99.90
2023-02-08T09:27:30.372Z,97.60
2023-02-08T09:32:34.241Z,97.60
2023-02-08T09:37:38.390Z,95.10
2023-02-08T09:42:47.136Z,97.50
2023-02-08T09:47:58.253Z,93.60
2023-02-08T09:53:08.137Z,91.40
2023-02-08T09:58:20.011Z,92.90
2023-02-08T10:03:34.395Z,94.10
2023-02-08T10:08:38.140Z,95.80
2023-02-08T10:13:59.904Z,97.70
2023-02-08T10:19:13.546Z,98.80
2023-02-08T10:24:54.261Z,99.90
2023-02-08T10:30:17.480Z,99.90
2023-02-08T10:35:27.357Z,99.40
2023-02-08T10:40:35.773Z,99.60
2023-02-08T10:45:48.027Z,99.90
2023-02-08T10:50:51.565Z,99.90
2023-02-08T10:55:55.040Z,99.90
2023-02-08T11:01:01.222Z,98.60
2023-02-08T11:06:06.298Z,96.30
2023-02-08T11:11:10.578Z,97.40
2023-02-08T11:16:22.353Z,96.70
2023-02-08T11:21:29.795Z,96.40
2023-02-08T11:26:36.878Z,96.10
2023-02-08T11:31:57.811Z,96.30
2023-02-08T11:37:04.583Z,95.30
2023-02-08T11:42:17.623Z,93.80
2023-02-08T11:47:27.121Z,95.00
2023-02-08T11:52:35.441Z,94.80
2023-02-08T11:57:52.355Z,94.00
2023-02-08T12:03:00.229Z,94.40
2023-02-08T12:08:09.882Z,94.40
2023-02-08T12:13:33.781Z,95.00
2023-02-08T12:19:01.312Z,94.90
2023-02-08T12:24:14.661Z,94.90
2023-02-08T12:29:47.647Z,94.70
2023-02-08T12:35:03.970Z,94.20
2023-02-08T12:40:39.824Z,93.30
2023-02-08T12:46:00.942Z,92.20
2023-02-08T12:51:18.815Z,90.90
2023-02-08T12:56:25.231Z,89.40
2023-02-08T13:01:34.141Z,84.30
2023-02-08T13:06:42.744Z,87.70
2023-02-08T13:11:53.362Z,83.70
2023-02-08T13:17:04.679Z,88.10
2023-02-08T13:22:12.934Z,87.10
2023-02-08T13:27:17.827Z,86.70
2023-02-08T13:32:29.834Z,83.10
2023-02-08T13:37:35.707Z,83.70
2023-02-08T13:42:43.100Z,84.00
2023-02-08T13:47:52.057Z,83.80
2023-02-08T13:52:57.182Z,84.00
2023-02-08T13:58:02.328Z,83.40
2023-02-08T14:03:21.148Z,88.50
2023-02-08T14:08:30.476Z,88.70
2023-02-08T14:13:38.868Z,87.60
2023-02-08T14:18:52.038Z,89.10
2023-02-08T14:24:04.989Z,91.10
2023-02-08T14:29:08.350Z,91.80
2023-02-08T14:34:27.256Z,92.90
2023-02-08T14:39:34.556Z,93.90
2023-02-08T14:45:00.496Z,94.20
2023-02-08T14:50:13.800Z,95.40
2023-02-08T14:55:26.614Z,95.80
2023-02-08T15:00:34.238Z,96.30
2023-02-08T15:05:48.944Z,96.40
2023-02-08T15:10:55.412Z,97.00
2023-02-08T15:15:59.291Z,97.30
2023-02-08T15:21:04.893Z,96.90
2023-02-08T15:26:21.944Z,97.60
2023-02-08T15:31:30.395Z,98.20
2023-02-08T15:36:37.298Z,99.00
2023-02-08T15:41:42.259Z,99.90
2023-02-08T15:46:47.154Z,99.90
2023-02-08T15:51:51.093Z,99.90
2023-02-08T15:57:02.047Z,99.90
2023-02-08T16:02:19.621Z,99.90
2023-02-08T16:07:27.808Z,99.90
2023-02-08T16:12:32.886Z,99.90
2023-02-08T16:17:41.773Z,99.90
2023-02-08T16:22:55.846Z,99.90
2023-02-08T16:28:00.644Z,99.90
2023-02-08T16:33:07.989Z,99.90
2023-02-08T16:38:21.802Z,99.90
2023-02-08T16:43:28.369Z,99.90
2023-02-08T16:48:35.984Z,99.90
2023-02-08T16:53:42.556Z,99.90
2023-02-08T16:58:47.831Z,99.90
2023-02-08T17:03:53.091Z,99.90
2023-02-08T17:08:57.129Z,99.90
2023-02-08T17:14:02.158Z,99.90
2023-02-08T17:19:06.010Z,99.90
2023-02-08T17:24:09.644Z,99.90
2023-02-08T17:29:15.411Z,99.90
2023-02-08T17:34:19.100Z,99.90
2023-02-08T17:39:22.607Z,99.90
2023-02-08T17:44:27.450Z,99.90
2023-02-08T17:49:30.940Z,99.90
2023-02-08T17:54:36.761Z,99.90
2023-02-08T17:59:42.134Z,99.90
2023-02-08T18:04:45.801Z,99.90
2023-02-08T18:09:49.429Z,99.90
2023-02-08T18:14:55.057Z,99.90
2023-02-08T18:19:58.891Z,99.90
2023-02-08T18:25:02.606Z,99.90
2023-02-08T18:30:09.807Z,99.90
2023-02-08T18:35:14.782Z,99.90
2023-02-08T18:40:18.872Z,99.90
2023-02-08T18:45:24.002Z,99.90
2023-02-08T18:50:29.001Z,99.90
2023-02-08T18:55:33.681Z,99.90
2023-02-08T19:00:38.864Z,99.90
2023-02-08T19:05:42.878Z,99.90
2023-02-08T19:10:46.690Z,99.90
2023-02-08T19:15:51.936Z,99.90
2023-02-08T19:20:55.565Z,99.90
2023-02-08T19:26:01.968Z,99.90
2023-02-08T19:31:12.413Z,99.90
2023-02-08T19:36:17.822Z,99.90
2023-02-08T19:41:23.705Z,99.90
2023-02-08T19:46:29.088Z,99.90
2023-02-08T19:51:37.111Z,99.90
2023-02-08T19:56:41.492Z,99.90
2023-02-08T20:01:47.532Z,99.90
2023-02-08T20:06:52.826Z,99.90
2023-02-08T20:11:58.070Z,99.90
2023-02-08T20:17:04.681Z,99.90
2023-02-08T20:22:09.705Z,99.90
2023-02-08T20:27:13.739Z,99.90
2023-02-08T20:32:19.990Z,99.90
2023-02-08T20:37:24.277Z,99.90
2023-02-08T20:42:27.803Z,99.90
2023-02-08T20:47:41.740Z,99.90
2023-02-08T20:52:49.880Z,99.90
2023-02-08T20:57:53.267Z,99.90
2023-02-08T21:02:57.997Z,99.90
2023-02-08T21:08:01.273Z,99.90
2023-02-08T21:13:05.247Z,99.90
2023-02-08T21:18:10.502Z,99.90
2023-02-08T21:23:13.942Z,99.90
2023-02-08T21:28:17.326Z,99.90
2023-02-08T21:33:21.935Z,99.90
2023-02-08T21:38:25.756Z,99.90
2023-02-08T21:43:29.042Z,99.90
2023-02-08T21:48:54.170Z,99.90
2023-02-08T21:54:16.508Z,99.90
2023-02-08T21:59:19.742Z,99.90
2023-02-08T22:04:24.389Z,99.90
2023-02-08T22:09:29.080Z,99.90
2023-02-08T22:14:33.722Z,99.90
2023-02-08T22:19:38.858Z,99.90
2023-02-08T22:24:42.554Z,99.90
2023-02-08T22:29:45.806Z,99.90
2023-02-08T22:34:50.509Z,99.90
2023-02-08T22:39:53.852Z,99.90
2023-02-08T22:44:57.555Z,99.90
2023-02-08T22:50:02.234Z,99.90
2023-02-08T22:55:06.622Z,99.90
2023-02-08T23:00:13.490Z,99.90
2023-02-08T23:05:19.263Z,99.90
2023-02-08T23:10:22.524Z,99.90
2023-02-08T23:15:25.883Z,99.90
2023-02-08T23:20:30.627Z,99.90
2023-02-08T23:25:33.961Z,99.90
2023-02-08T23:30:39.197Z,99.90
2023-02-08T23:35:44.301Z,99.90
2023-02-08T23:40:47.587Z,99.90
2023-02-08T23:45:50.888Z,99.90
2023-02-08T23:50:59.263Z,99.90
2023-02-08T23:56:06.490Z,99.90
